createdAt,value
2023-04-12T00:00:57.966Z,14.62
2023-04-12T00:03:25.539Z,14.48
2023-04-12T00:05:55.819Z,14.95
2023-04-12T00:08:33.089Z,15.18
2023-04-12T00:11:00.951Z,15.27
2023-04-12T00:13:28.128Z,15.25
2023-04-12T00:15:54.906Z,15.19
2023-04-12T00:18:25.616Z,15.00
2023-04-12T00:20:53.185Z,14.55
2023-04-12T00:23:20.255Z,14.24
2023-04-12T00:25:47.497Z,14.38
2023-04-12T00:28:16.014Z,14.07
2023-04-12T00:30:43.038Z,13.91
2023-04-12T00:33:09.779Z,14.68
2023-04-12T00:35:36.584Z,14.97
2023-04-12T00:38:03.866Z,14.56
2023-04-12T00:40:30.869Z,14.65
2023-04-12T00:42:57.811Z,14.81
2023-04-12T00:45:24.490Z,14.99
2023-04-12T00:47:51.390Z,15.24
2023-04-12T00:50:18.179Z,15.24
2023-04-12T00:52:45.137Z,15.37
2023-04-12T00:55:12.076Z,15.16
2023-04-12T00:57:40.194Z,14.37
2023-04-12T01:00:12.877Z,14.71
2023-04-12T01:02:50.693Z,14.88
2023-04-12T01:05:23.754Z,14.63
2023-04-12T01:08:05.045Z,14.40
2023-04-12T01:10:34.832Z,14.45
2023-04-12T01:13:07.390Z,14.22
2023-04-12T01:15:39.673Z,14.53
2023-04-12T01:18:12.311Z,14.62
2023-04-12T01:21:08.053Z,14.37
2023-04-12T01:23:48.068Z,14.62
2023-04-12T01:26:15.838Z,14.33
2023-04-12T01:28:44.710Z,14.35
2023-04-12T01:31:14.174Z,14.05
2023-04-12T01:33:43.305Z,14.72
2023-04-12T01:36:19.028Z,14.82
2023-04-12T01:38:46.852Z,14.29
2023-04-12T01:41:13.801Z,14.09
2023-04-12T01:43:42.997Z,14.62
2023-04-12T01:46:14.814Z,14.94
2023-04-12T01:48:44.949Z,14.53
2023-04-12T01:51:18.259Z,14.70
2023-04-12T01:53:58.061Z,14.29
2023-04-12T01:56:29.841Z,14.27
2023-04-12T01:58:57.353Z,13.81
2023-04-12T02:01:25.327Z,14.17
2023-04-12T02:03:53.317Z,14.50
2023-04-12T02:06:23.266Z,14.55
2023-04-12T02:08:50.148Z,14.73
2023-04-12T02:11:16.680Z,14.90
2023-04-12T02:13:43.275Z,13.85
2023-04-12T02:16:11.061Z,13.95
2023-04-12T02:18:37.749Z,14.15
2023-04-12T02:21:04.486Z,14.40
2023-04-12T02:23:31.153Z,14.52
2023-04-12T02:25:57.714Z,14.38
2023-04-12T02:28:24.413Z,14.49
2023-04-12T02:30:54.087Z,14.67
2023-04-12T02:33:28.330Z,14.61
2023-04-12T02:35:56.299Z,14.64
2023-04-12T02:38:23.467Z,14.44
2023-04-12T02:40:50.082Z,14.04
2023-04-12T02:43:16.691Z,14.36
2023-04-12T02:45:43.266Z,14.40
2023-04-12T02:48:09.960Z,14.69
2023-04-12T02:50:37.566Z,14.37
2023-04-12T02:53:04.260Z,14.35
2023-04-12T02:55:30.844Z,14.51
2023-04-12T02:57:57.576Z,14.82
2023-04-12T03:00:24.339Z,14.76
2023-04-12T03:02:51.804Z,14.59
2023-04-12T03:05:19.305Z,14.20
2023-04-12T03:07:46.358Z,14.02
2023-04-12T03:10:13.337Z,13.63
2023-04-12T03:12:40.097Z,14.02
2023-04-12T03:15:07.208Z,14.38
2023-04-12T03:17:33.783Z,14.30
2023-04-12T03:20:07.988Z,14.59
2023-04-12T03:22:34.576Z,14.65
2023-04-12T03:25:01.549Z,14.97
2023-04-12T03:27:28.440Z,14.83
2023-04-12T03:29:55.460Z,14.85
2023-04-12T03:32:22.276Z,14.44
2023-04-12T03:34:49.025Z,14.64
2023-04-12T03:37:15.596Z,14.12
2023-04-12T03:39:44.865Z,13.88
2023-04-12T03:42:21.573Z,14.48
2023-04-12T03:44:52.518Z,14.76
2023-04-12T03:47:19.535Z,14.66
2023-04-12T03:49:57.622Z,14.72
2023-04-12T03:52:34.615Z,14.97
2023-04-12T03:55:01.386Z,15.17
2023-04-12T03:57:28.082Z,15.15
2023-04-12T03:59:54.824Z,14.84
2023-04-12T04:02:21.543Z,15.14
2023-04-12T04:04:48.319Z,14.86
2023-04-12T04:07:15.091Z,14.52
2023-04-12T04:09:41.638Z,14.28
2023-04-12T04:12:09.030Z,14.19
2023-04-12T04:14:37.129Z,14.03
2023-04-12T04:17:03.692Z,14.34
2023-04-12T04:19:30.402Z,14.25
2023-04-12T04:21:57.066Z,14.50
2023-04-12T04:24:25.162Z,14.77
2023-04-12T04:26:54.394Z,14.32
2023-04-12T04:29:21.117Z,14.03
2023-04-12T04:31:48.525Z,14.18
2023-04-12T04:34:16.370Z,14.24
2023-04-12T04:36:43.809Z,14.66
2023-04-12T04:39:10.360Z,14.71
2023-04-12T04:41:40.487Z,14.44
2023-04-12T04:44:10.643Z,14.32
2023-04-12T04:46:38.174Z,14.17
2023-04-12T04:49:05.447Z,14.25
2023-04-12T04:51:32.653Z,14.31
2023-04-12T04:53:59.344Z,14.48
2023-04-12T04:56:26.312Z,14.60
2023-04-12T04:58:55.289Z,14.20
2023-04-12T05:01:28.365Z,14.33
2023-04-12T05:03:56.109Z,14.26
2023-04-12T05:06:23.230Z,14.34
2023-04-12T05:08:50.006Z,14.28
2023-04-12T05:11:16.691Z,14.64
2023-04-12T05:13:43.219Z,14.31
2023-04-12T05:16:10.289Z,14.33
2023-04-12T05:18:37.059Z,14.15
2023-04-12T05:21:05.455Z,14.19
2023-04-12T05:23:42.853Z,14.06
2023-04-12T05:26:09.372Z,14.21
2023-04-12T05:28:36.306Z,14.28
2023-04-12T05:31:03.224Z,14.49
2023-04-12T05:33:32.140Z,14.56
2023-04-12T05:35:59.963Z,14.05
2023-04-12T05:38:26.820Z,13.78
2023-04-12T05:40:53.579Z,14.48
2023-04-12T05:43:20.339Z,14.35
2023-04-12T05:45:47.697Z,14.35
2023-04-12T05:48:14.640Z,14.28
2023-04-12T05:50:41.147Z,14.18
2023-04-12T05:53:08.487Z,14.49
2023-04-12T05:55:37.291Z,14.54
2023-04-12T05:58:04.523Z,14.57
2023-04-12T06:00:31.488Z,13.88
2023-04-12T06:02:58.643Z,13.98
2023-04-12T06:05:25.660Z,13.95
2023-04-12T06:07:52.346Z,14.17
2023-04-12T06:10:19.041Z,14.69
2023-04-12T06:12:45.643Z,14.35
2023-04-12T06:15:12.438Z,14.02
2023-04-12T06:17:39.180Z,14.24
2023-04-12T06:20:09.389Z,14.58
2023-04-12T06:22:37.390Z,14.51
2023-04-12T06:25:04.835Z,14.24
2023-04-12T06:27:31.581Z,14.06
2023-04-12T06:29:59.360Z,14.28
2023-04-12T06:32:26.274Z,14.16
2023-04-12T06:34:53.684Z,14.23
2023-04-12T06:37:21.745Z,14.28
2023-04-12T06:39:48.308Z,14.87
2023-04-12T06:42:15.782Z,14.65
2023-04-12T06:44:42.581Z,14.38
2023-04-12T06:47:09.752Z,14.40
2023-04-12T06:49:36.546Z,14.49
2023-04-12T06:52:03.263Z,14.54
2023-04-12T06:54:30.258Z,14.78
2023-04-12T06:56:57.641Z,14.67
2023-04-12T06:59:24.424Z,14.57
2023-04-12T07:01:51.157Z,14.77
2023-04-12T07:04:17.863Z,14.70
2023-04-12T07:06:44.748Z,14.76
2023-04-12T07:09:11.490Z,14.99
2023-04-12T07:11:38.108Z,15.15
2023-04-12T07:14:04.737Z,15.44
2023-04-12T07:16:32.597Z,15.43
2023-04-12T07:19:01.241Z,15.12
2023-04-12T07:21:28.489Z,15.26
2023-04-12T07:23:56.662Z,15.41
2023-04-12T07:26:23.776Z,15.80
2023-04-12T07:28:50.461Z,15.69
2023-04-12T07:31:17.164Z,15.23
2023-04-12T07:33:44.371Z,15.46
2023-04-12T07:36:12.475Z,15.70
2023-04-12T07:38:39.092Z,15.64
2023-04-12T07:41:06.090Z,15.89
2023-04-12T07:43:32.902Z,15.59
2023-04-12T07:45:59.825Z,15.28
2023-04-12T07:48:26.407Z,15.18
2023-04-12T07:50:53.199Z,15.06
2023-04-12T07:53:25.342Z,15.56
2023-04-12T07:55:52.606Z,15.67
2023-04-12T07:58:20.829Z,15.89
2023-04-12T08:00:47.591Z,15.80
2023-04-12T08:03:16.841Z,15.88
2023-04-12T08:05:44.348Z,16.00
2023-04-12T08:08:11.987Z,16.16
2023-04-12T08:10:39.815Z,16.23
2023-04-12T08:13:07.160Z,16.21
2023-04-12T08:15:34.044Z,16.17
2023-04-12T08:18:01.857Z,16.29
2023-04-12T08:20:28.700Z,16.03
2023-04-12T08:22:55.344Z,15.98
2023-04-12T08:25:22.447Z,15.99
2023-04-12T08:27:50.042Z,15.82
2023-04-12T08:30:17.525Z,15.91
2023-04-12T08:32:44.293Z,16.21
2023-04-12T08:35:11.603Z,16.38
2023-04-12T08:37:38.153Z,16.36
2023-04-12T08:40:07.406Z,16.11
2023-04-12T08:42:38.491Z,16.27
2023-04-12T08:45:06.896Z,16.31
2023-04-12T08:47:41.025Z,15.85
2023-04-12T08:50:09.492Z,15.62
2023-04-12T08:52:37.811Z,15.80
2023-04-12T08:55:06.163Z,16.07
2023-04-12T08:57:34.758Z,16.43
2023-04-12T09:00:03.814Z,16.80
2023-04-12T09:02:30.730Z,16.77
2023-04-12T09:04:58.481Z,16.61
2023-04-12T09:07:28.275Z,16.48
2023-04-12T09:09:56.875Z,16.27
2023-04-12T09:12:26.329Z,16.51
2023-04-12T09:15:22.415Z,16.44
2023-04-12T09:17:49.631Z,16.42
2023-04-12T09:20:16.157Z,16.46
2023-04-12T09:22:47.809Z,16.44
2023-04-12T09:25:15.684Z,16.22
2023-04-12T09:27:47.064Z,16.54
2023-04-12T09:30:14.573Z,16.47
2023-04-12T09:32:41.246Z,16.48
2023-04-12T09:35:08.386Z,16.82
2023-04-12T09:37:35.179Z,16.68
2023-04-12T09:40:04.858Z,16.71
2023-04-12T09:42:34.849Z,16.53
2023-04-12T09:45:21.991Z,16.61
2023-04-12T09:47:49.273Z,16.62
2023-04-12T09:50:29.298Z,16.53
2023-04-12T09:52:57.779Z,16.71
2023-04-12T09:55:26.772Z,16.59
2023-04-12T09:57:55.122Z,16.80
2023-04-12T10:00:27.147Z,16.69
2023-04-12T10:02:56.281Z,17.13
2023-04-12T10:05:28.413Z,16.87
2023-04-12T10:07:56.984Z,16.91
2023-04-12T10:10:23.645Z,17.24
2023-04-12T10:12:50.646Z,17.18
2023-04-12T10:15:18.468Z,16.95
2023-04-12T10:17:53.335Z,17.06
2023-04-12T10:20:21.916Z,17.51
2023-04-12T10:22:51.044Z,17.26
2023-04-12T10:25:23.093Z,17.01
2023-04-12T10:27:50.130Z,16.99
2023-04-12T10:30:30.321Z,17.48
2023-04-12T10:33:03.173Z,17.49
2023-04-12T10:35:50.753Z,17.29
2023-04-12T10:38:17.856Z,17.35
2023-04-12T10:41:19.698Z,17.27
2023-04-12T10:43:50.909Z,16.89
2023-04-12T10:46:39.136Z,16.27
2023-04-12T10:49:10.566Z,17.18
2023-04-12T10:51:37.289Z,16.43
2023-04-12T10:54:19.126Z,16.47
2023-04-12T10:56:46.871Z,16.90
2023-04-12T10:59:14.790Z,16.91
2023-04-12T11:01:42.807Z,16.92
2023-04-12T11:04:17.230Z,16.85
2023-04-12T11:06:59.193Z,16.53
2023-04-12T11:09:27.761Z,16.70
2023-04-12T11:12:09.554Z,16.85
2023-04-12T11:14:38.452Z,17.24
2023-04-12T11:17:14.756Z,17.34
2023-04-12T11:19:43.991Z,17.29
2023-04-12T11:22:12.600Z,17.45
2023-04-12T11:24:46.870Z,17.41
2023-04-12T11:27:14.212Z,17.73
2023-04-12T11:29:40.743Z,17.77
2023-04-12T11:32:12.298Z,17.69
2023-04-12T11:34:38.942Z,17.67
2023-04-12T11:37:08.381Z,17.52
2023-04-12T11:39:43.130Z,17.74
2023-04-12T11:42:15.936Z,17.64
2023-04-12T11:44:56.005Z,17.83
2023-04-12T11:47:24.813Z,17.71
2023-04-12T11:49:53.411Z,17.51
2023-04-12T11:52:20.995Z,17.57
2023-04-12T11:54:49.577Z,17.50
2023-04-12T11:57:18.490Z,17.35
2023-04-12T11:59:47.798Z,17.41
2023-04-12T12:02:23.206Z,17.25
2023-04-12T12:04:51.302Z,17.22
2023-04-12T12:07:19.616Z,17.35
2023-04-12T12:09:46.950Z,17.27
2023-04-12T12:12:15.938Z,17.73
2023-04-12T12:14:44.836Z,17.39
2023-04-12T12:17:13.160Z,17.42
2023-04-12T12:19:41.998Z,17.18
2023-04-12T12:22:15.746Z,17.54
2023-04-12T12:24:55.746Z,17.72
2023-04-12T12:27:24.249Z,17.44
2023-04-12T12:29:53.440Z,17.63
2023-04-12T12:32:23.512Z,17.59
2023-04-12T12:34:55.057Z,17.83
2023-04-12T12:37:31.511Z,17.64
2023-04-12T12:40:01.971Z,17.91
2023-04-12T12:42:29.174Z,18.03
2023-04-12T12:44:55.996Z,18.01
2023-04-12T12:47:22.625Z,17.32
2023-04-12T12:49:49.294Z,17.26
2023-04-12T12:52:17.806Z,17.87
2023-04-12T12:54:44.908Z,17.61
2023-04-12T12:57:12.224Z,17.63
2023-04-12T12:59:38.949Z,17.27
2023-04-12T13:02:07.253Z,17.13
2023-04-12T13:04:34.649Z,17.32
2023-04-12T13:07:01.417Z,17.09
2023-04-12T13:09:28.075Z,17.14
2023-04-12T13:11:54.763Z,16.81
2023-04-12T13:14:21.417Z,16.56
2023-04-12T13:16:49.306Z,16.66
2023-04-12T13:19:16.450Z,16.85
2023-04-12T13:21:43.124Z,16.98
2023-04-12T13:24:09.623Z,16.82
2023-04-12T13:26:36.315Z,16.79
2023-04-12T13:29:03.505Z,16.86
2023-04-12T13:31:30.124Z,16.92
2023-04-12T13:33:56.930Z,17.02
2023-04-12T13:36:23.621Z,17.06
2023-04-12T13:38:50.131Z,17.01
2023-04-12T13:41:16.930Z,16.99
2023-04-12T13:43:43.704Z,16.87
2023-04-12T13:46:10.452Z,16.80
2023-04-12T13:48:37.406Z,16.86
2023-04-12T13:51:04.461Z,16.86
2023-04-12T13:53:31.326Z,16.99
2023-04-12T13:55:58.111Z,17.01
2023-04-12T13:58:25.978Z,17.27
2023-04-12T14:00:54.365Z,17.22
2023-04-12T14:03:21.103Z,17.40
2023-04-12T14:05:47.803Z,17.68
2023-04-12T14:08:14.330Z,17.93
2023-04-12T14:10:41.434Z,17.88
2023-04-12T14:13:08.068Z,17.95
2023-04-12T14:15:34.652Z,18.31
2023-04-12T14:18:01.303Z,18.20
2023-04-12T14:20:28.145Z,18.19
2023-04-12T14:22:54.721Z,18.20
2023-04-12T14:25:21.464Z,18.24
2023-04-12T14:27:48.068Z,18.11
2023-04-12T14:30:16.362Z,18.03
2023-04-12T14:32:45.957Z,17.91
2023-04-12T14:35:14.267Z,18.08
2023-04-12T14:37:40.871Z,17.94
2023-04-12T14:40:08.567Z,17.63
2023-04-12T14:42:35.761Z,17.68
2023-04-12T14:45:02.365Z,17.59
2023-04-12T14:47:28.987Z,17.35
2023-04-12T14:49:55.958Z,17.41
2023-04-12T14:52:22.509Z,17.17
2023-04-12T14:54:49.176Z,17.16
2023-04-12T14:57:15.868Z,17.25
2023-04-12T14:59:42.493Z,17.17
2023-04-12T15:02:09.657Z,17.19
2023-04-12T15:04:38.145Z,17.19
2023-04-12T15:07:04.758Z,17.16
2023-04-12T15:09:31.330Z,17.01
2023-04-12T15:12:01.479Z,16.87
2023-04-12T15:14:28.833Z,16.91
2023-04-12T15:16:55.922Z,16.84
2023-04-12T15:19:24.015Z,16.89
2023-04-12T15:21:52.418Z,16.89
2023-04-12T15:24:19.520Z,16.80
2023-04-12T15:26:48.510Z,16.91
2023-04-12T15:29:16.612Z,16.88
2023-04-12T15:31:43.563Z,16.84
2023-04-12T15:34:11.333Z,16.96
2023-04-12T15:36:38.012Z,16.96
2023-04-12T15:39:05.048Z,16.95
2023-04-12T15:41:38.679Z,17.03
2023-04-12T15:44:06.149Z,17.06
2023-04-12T15:46:33.592Z,16.99
2023-04-12T15:49:00.500Z,16.95
2023-04-12T15:51:27.845Z,16.97
2023-04-12T15:53:55.876Z,16.92
2023-04-12T15:56:25.630Z,16.92
2023-04-12T15:58:53.765Z,16.97
2023-04-12T16:01:20.502Z,17.02
2023-04-12T16:03:49.229Z,17.05
2023-04-12T16:06:20.619Z,17.00
2023-04-12T16:08:52.223Z,16.99
2023-04-12T16:11:22.151Z,17.09
2023-04-12T16:13:49.786Z,16.93
2023-04-12T16:16:17.915Z,16.82
2023-04-12T16:18:45.845Z,16.91
2023-04-12T16:21:16.673Z,17.13
2023-04-12T16:23:44.220Z,17.11
2023-04-12T16:26:12.372Z,17.02
2023-04-12T16:28:39.209Z,17.06
2023-04-12T16:31:06.509Z,16.98
2023-04-12T16:33:33.242Z,16.90
2023-04-12T16:36:01.548Z,16.61
2023-04-12T16:38:28.285Z,16.64
2023-04-12T16:40:54.973Z,16.55
2023-04-12T16:43:21.531Z,16.60
2023-04-12T16:45:49.295Z,16.55
2023-04-12T16:48:16.171Z,16.72
2023-04-12T16:50:47.325Z,16.87
2023-04-12T16:53:16.672Z,16.98
2023-04-12T16:55:45.183Z,16.80
2023-04-12T16:58:11.691Z,16.58
2023-04-12T17:00:39.014Z,16.44
2023-04-12T17:03:07.504Z,16.42
2023-04-12T17:05:34.172Z,16.40
2023-04-12T17:08:01.087Z,16.55
2023-04-12T17:10:28.148Z,16.43
2023-04-12T17:12:59.604Z,16.42
2023-04-12T17:15:27.300Z,16.40
2023-04-12T17:18:01.676Z,16.28
2023-04-12T17:20:29.365Z,16.19
2023-04-12T17:22:57.914Z,16.13
2023-04-12T17:25:25.913Z,16.11
2023-04-12T17:27:54.072Z,16.20
2023-04-12T17:30:20.789Z,16.41
2023-04-12T17:32:47.719Z,16.43
2023-04-12T17:35:14.710Z,16.44
2023-04-12T17:37:41.520Z,16.40
2023-04-12T17:40:10.637Z,16.33
2023-04-12T17:42:39.375Z,16.15
2023-04-12T17:45:07.108Z,16.07
2023-04-12T17:47:34.809Z,15.96
2023-04-12T17:50:01.997Z,15.85
2023-04-12T17:52:28.610Z,16.05
2023-04-12T17:54:55.140Z,15.98
2023-04-12T17:57:22.444Z,15.66
2023-04-12T17:59:49.043Z,15.50
2023-04-12T18:02:17.162Z,15.33
2023-04-12T18:04:43.981Z,15.44
2023-04-12T18:07:11.781Z,15.31
2023-04-12T18:09:38.474Z,14.93
2023-04-12T18:12:05.991Z,14.43
2023-04-12T18:14:32.750Z,13.83
2023-04-12T18:16:59.297Z,13.27
2023-04-12T18:19:26.120Z,12.94
2023-04-12T18:21:52.735Z,12.92
2023-04-12T18:24:19.301Z,12.94
2023-04-12T18:26:46.175Z,13.02
2023-04-12T18:29:14.622Z,13.20
2023-04-12T18:31:41.304Z,13.34
2023-04-12T18:34:11.198Z,13.39
2023-04-12T18:36:38.132Z,13.44
2023-04-12T18:39:05.744Z,13.47
2023-04-12T18:41:32.654Z,13.47
2023-04-12T18:43:59.871Z,13.51
2023-04-12T18:46:27.014Z,13.54
2023-04-12T18:48:54.808Z,13.68
2023-04-12T18:51:23.243Z,13.56
2023-04-12T18:53:51.156Z,13.54
2023-04-12T18:56:23.330Z,13.55
2023-04-12T18:58:55.965Z,13.55
2023-04-12T19:01:23.479Z,13.44
2023-04-12T19:03:50.410Z,13.52
2023-04-12T19:06:17.119Z,13.47
2023-04-12T19:08:43.988Z,13.48
2023-04-12T19:11:11.023Z,13.52
2023-04-12T19:13:38.329Z,13.49
2023-04-12T19:16:07.908Z,13.34
2023-04-12T19:18:35.452Z,13.09
2023-04-12T19:21:03.536Z,13.26
2023-04-12T19:23:30.714Z,13.57
2023-04-12T19:26:00.160Z,13.72
2023-04-12T19:28:27.234Z,13.86
2023-04-12T19:30:53.904Z,13.97
2023-04-12T19:33:20.737Z,14.03
2023-04-12T19:35:47.629Z,13.80
2023-04-12T19:38:15.787Z,14.04
2023-04-12T19:40:43.308Z,14.42
2023-04-12T19:43:09.978Z,14.41
2023-04-12T19:45:36.595Z,14.72
2023-04-12T19:48:03.401Z,14.68
2023-04-12T19:50:36.905Z,14.75
2023-04-12T19:53:03.724Z,14.69
2023-04-12T19:55:30.540Z,14.87
2023-04-12T19:57:58.211Z,14.75
2023-04-12T20:00:25.386Z,15.09
2023-04-12T20:02:53.838Z,14.76
2023-04-12T20:05:21.298Z,14.24
2023-04-12T20:07:47.903Z,14.36
2023-04-12T20:10:15.584Z,14.33
2023-04-12T20:12:42.788Z,14.41
2023-04-12T20:15:11.837Z,14.21
2023-04-12T20:17:41.877Z,13.69
2023-04-12T20:20:15.649Z,13.49
2023-04-12T20:22:43.909Z,13.37
2023-04-12T20:25:11.073Z,13.41
2023-04-12T20:27:39.064Z,13.63
2023-04-12T20:30:07.349Z,13.64
2023-04-12T20:32:35.836Z,13.64
2023-04-12T20:35:05.615Z,13.70
2023-04-12T20:37:32.889Z,13.84
2023-04-12T20:39:59.506Z,14.01
2023-04-12T20:42:26.385Z,13.96
2023-04-12T20:44:53.063Z,14.10
2023-04-12T20:47:22.490Z,13.80
2023-04-12T20:49:49.149Z,13.88
2023-04-12T20:52:19.810Z,14.00
2023-04-12T20:54:48.177Z,13.99
2023-04-12T20:57:19.750Z,13.96
2023-04-12T20:59:47.502Z,14.14
2023-04-12T21:02:16.596Z,13.95
2023-04-12T21:04:45.162Z,13.78
2023-04-12T21:07:13.085Z,13.91
2023-04-12T21:09:39.718Z,14.09
2023-04-12T21:12:08.802Z,13.76
2023-04-12T21:14:37.807Z,13.15
2023-04-12T21:17:05.040Z,12.91
2023-04-12T21:19:31.643Z,13.01
2023-04-12T21:22:02.035Z,13.10
2023-04-12T21:24:28.769Z,12.95
2023-04-12T21:26:56.582Z,13.07
2023-04-12T21:29:23.789Z,13.01
2023-04-12T21:31:50.508Z,12.93
2023-04-12T21:34:18.242Z,12.98
2023-04-12T21:36:45.460Z,13.03
2023-04-12T21:39:12.394Z,12.78
2023-04-12T21:41:39.021Z,12.74
2023-04-12T21:44:05.899Z,12.83
2023-04-12T21:46:32.399Z,12.98
2023-04-12T21:48:59.143Z,12.95
2023-04-12T21:51:26.480Z,12.90
2023-04-12T21:53:52.999Z,12.88
2023-04-12T21:56:19.551Z,12.75
2023-04-12T21:58:46.268Z,12.69
2023-04-12T22:01:13.578Z,12.94
2023-04-12T22:03:40.281Z,12.79
2023-04-12T22:06:07.486Z,12.62
2023-04-12T22:08:34.329Z,12.64
2023-04-12T22:11:01.447Z,12.51
2023-04-12T22:13:28.155Z,12.55
2023-04-12T22:15:55.040Z,12.89
2023-04-12T22:18:22.185Z,13.13
2023-04-12T22:20:49.081Z,13.48
2023-04-12T22:23:18.124Z,13.14
2023-04-12T22:25:45.625Z,12.53
2023-04-12T22:28:12.521Z,12.72
2023-04-12T22:30:39.567Z,12.42
2023-04-12T22:33:08.397Z,12.38
2023-04-12T22:35:36.516Z,12.48
2023-04-12T22:38:04.183Z,12.12
2023-04-12T22:40:30.754Z,12.10
2023-04-12T22:42:58.289Z,12.02
2023-04-12T22:45:25.182Z,12.24
2023-04-12T22:47:52.992Z,12.35
2023-04-12T22:50:20.119Z,12.09
2023-04-12T22:52:49.856Z,12.02
2023-04-12T22:55:18.183Z,12.16
2023-04-12T22:57:45.237Z,12.36
2023-04-12T23:00:15.857Z,12.48
2023-04-12T23:02:43.944Z,12.44
2023-04-12T23:05:12.293Z,12.57
2023-04-12T23:07:38.858Z,12.38
2023-04-12T23:10:06.502Z,12.23
2023-04-12T23:12:33.244Z,12.56
2023-04-12T23:14:59.807Z,12.74
2023-04-12T23:17:26.728Z,12.62
2023-04-12T23:19:53.754Z,12.58
2023-04-12T23:22:48.409Z,12.69
2023-04-12T23:25:21.867Z,12.74
2023-04-12T23:27:49.379Z,12.56
2023-04-12T23:30:17.563Z,12.95
2023-04-12T23:32:44.490Z,12.92
2023-04-12T23:35:12.271Z,13.06
2023-04-12T23:37:41.097Z,12.63
2023-04-12T23:40:15.016Z,12.37
2023-04-12T23:42:43.505Z,12.53
2023-04-12T23:45:12.081Z,12.38
2023-04-12T23:47:38.794Z,12.18
2023-04-12T23:50:06.754Z,12.00
2023-04-12T23:52:33.532Z,12.09
2023-04-12T23:55:00.206Z,12.55
2023-04-12T23:57:27.273Z,12.43
2023-04-12T23:59:54.007Z,12.82
